Historique des mesures à Cassis (13260), France
Quotidien Résumé Fevrier 16, 2018 Unités:  US    Métrique   Métrique/US
« Précédent (Jour)
Suivant (Jour) »
Quotidien Hebdomadaire Mensuel Annuel Période au choix
  Maximum: Minimum: Moyenne:
Température: 32 °F 46.6 °F 51.4 °F
Point de rosée: 32 °F 41.4 °F 45.3 °F
Humidité: Humidity % 72 % 75 %
Vitesse du vent: WindSpeedKMH mph 0.0 mph 0.3 mph
Rafales: WindSpeedGustKMH mph - -
Vent:- - SE
Pression: 0 in 30.1 in -
Précipitations: 0 in    
Historical Graphs
 
 
Mesures pour : Fevrier 16, 2018
Heure Temperature Point de rosée Pression Vent Vitesse du vent Rafales Humidité Pluie (par heure) Conditions
32 °F 32 °F 0 in Calm     Humidity % 0 in SoftwareType W/m2
00:12 49.3 °F 42.3 °F 30.1 in Calm     77 % 0 in open2300-1.11 W/m2
01:12 48.4 °F 42.1 °F 30.1 in Calm     79 % 0 in open2300-1.11 W/m2
02:12 47.5 °F 41.5 °F 30.1 in Calm     80 % 0 in open2300-1.11 W/m2
03:12 48.4 °F 42.8 °F 30.1 in Calm     81 % 0 in open2300-1.11 W/m2
04:12 48 °F 42.4 °F 30.1 in Calm     81 % 0 in open2300-1.11 W/m2
05:12 47.5 °F 41.9 °F 30.1 in Calm     81 % 0 in open2300-1.11 W/m2
06:12 46.9 °F 41.7 °F 30.1 in Calm     82 % 0 in open2300-1.11 W/m2
07:12 46.6 °F 41.4 °F 30.1 in Calm     82 % 0 in open2300-1.11 W/m2
08:12 47.7 °F 42.4 °F 30.1 in Calm     82 % 0 in open2300-1.11 W/m2
09:12 50.9 °F 45.3 °F 30.1 in Calm     81 % 0 in open2300-1.11 W/m2
10:12 53.2 °F 46.6 °F 30.1 in Calm     78 % 0 in open2300-1.11 W/m2
12:12 56.8 °F 48.2 °F 30.1 in SE 3.2 mph 3.2 mph 73 % 0 in open2300-1.11 W/m2
13:12 57.7 °F 48.7 °F 30.1 in Calm   2.6 mph 72 % 0 in open2300-1.11 W/m2
14:12 57.9 °F 48.9 °F 30.1 in ESE 4.0 mph 4.0 mph 72 % 0 in open2300-1.11 W/m2
15:12 57.6 °F 49.3 °F 30.1 in Calm   2.9 mph 74 % 0 in open2300-1.11 W/m2
16:12 57.4 °F 49.5 °F 30.1 in Calm   2.6 mph 75 % 0 in open2300-1.11 W/m2
17:12 56.7 °F 49.5 °F 30.1 in Calm     77 % 0 in open2300-1.11 W/m2
18:12 55.6 °F 49.1 °F 30.1 in Calm     79 % 0 in open2300-1.11 W/m2
20:12 54.5 °F 48.7 °F 30.1 in Calm     81 % 0 in open2300-1.11 W/m2
21:12 54.5 °F 48.7 °F 30.1 in Calm     81 % 0 in open2300-1.11 W/m2
22:12 54.7 °F 48.9 °F 30.1 in Calm   1.4 mph 81 % 0 in open2300-1.11 W/m2
23:12 55 °F 48.9 °F 30.1 in Calm     80 % 0 in open2300-1.11 W/m2
Observations météo à CASSIS
WU-History script by Weather Underground - 1 mb